createdAt,value
2023-03-05T00:00:17.737Z,4.31
2023-03-05T00:01:33.527Z,4.29
2023-03-05T00:02:40.056Z,4.30
2023-03-05T00:03:47.254Z,4.30
2023-03-05T00:04:51.026Z,4.28
2023-03-05T00:05:57.917Z,4.28
2023-03-05T00:07:01.441Z,4.29
2023-03-05T00:08:12.039Z,4.29
2023-03-05T00:09:16.775Z,4.28
2023-03-05T00:10:22.176Z,4.26
2023-03-05T00:11:30.330Z,4.26
2023-03-05T00:12:34.191Z,4.25
2023-03-05T00:13:39.145Z,4.25
2023-03-05T00:14:42.823Z,4.27
2023-03-05T00:15:49.458Z,4.24
2023-03-05T00:16:53.474Z,4.17
2023-03-05T00:17:57.141Z,4.10
2023-03-05T00:19:02.177Z,4.04
2023-03-05T00:20:12.001Z,4.12
2023-03-05T00:21:32.501Z,4.15
2023-03-05T00:22:36.901Z,4.14
2023-03-05T00:23:40.473Z,4.06
2023-03-05T00:24:44.390Z,4.05
2023-03-05T00:25:48.357Z,4.03
2023-03-05T00:26:53.353Z,4.05
2023-03-05T00:27:57.079Z,4.05
2023-03-05T00:29:01.302Z,4.05
2023-03-05T00:30:10.612Z,4.00
2023-03-05T00:31:14.187Z,4.05
2023-03-05T00:32:19.061Z,4.08
2023-03-05T00:33:22.959Z,4.07
2023-03-05T00:34:28.328Z,4.07
2023-03-05T00:35:34.135Z,4.05
2023-03-05T00:36:48.677Z,3.96
2023-03-05T00:37:53.025Z,3.86
2023-03-05T00:38:58.497Z,3.94
2023-03-05T00:40:02.982Z,3.99
2023-03-05T00:41:09.502Z,3.94
2023-03-05T00:42:13.738Z,3.91
2023-03-05T00:43:17.698Z,3.95
2023-03-05T00:44:21.705Z,3.94
2023-03-05T00:45:25.611Z,3.90
2023-03-05T00:46:29.492Z,3.83
2023-03-05T00:47:34.129Z,3.82
2023-03-05T00:48:38.017Z,3.80
2023-03-05T00:49:41.543Z,3.84
2023-03-05T00:50:48.795Z,3.85
2023-03-05T00:51:52.978Z,3.82
2023-03-05T00:52:56.949Z,3.85
2023-03-05T00:54:00.877Z,3.83
2023-03-05T00:55:12.657Z,3.85
2023-03-05T00:56:16.779Z,3.87
2023-03-05T00:57:20.728Z,3.86
2023-03-05T00:58:24.992Z,3.88
2023-03-05T00:59:29.394Z,3.89
2023-03-05T01:00:33.154Z,3.83
2023-03-05T01:01:37.632Z,3.88
2023-03-05T01:02:41.744Z,3.85
2023-03-05T01:03:45.499Z,3.88
2023-03-05T01:04:49.520Z,3.92
2023-03-05T01:05:53.218Z,3.93
2023-03-05T01:06:57.433Z,3.92
2023-03-05T01:08:03.070Z,3.93
2023-03-05T01:09:11.633Z,3.95
2023-03-05T01:10:15.604Z,3.97
2023-03-05T01:11:19.410Z,3.99
2023-03-05T01:12:23.718Z,4.02
2023-03-05T01:13:27.580Z,4.00
2023-03-05T01:14:31.292Z,4.00
2023-03-05T01:15:35.547Z,3.98
2023-03-05T01:16:39.487Z,3.99
2023-03-05T01:17:43.091Z,4.02
2023-03-05T01:18:46.972Z,4.02
2023-03-05T01:19:50.574Z,4.02
2023-03-05T01:20:54.713Z,4.04
2023-03-05T01:21:59.278Z,4.07
2023-03-05T01:23:03.072Z,4.07
2023-03-05T01:24:11.695Z,4.09
2023-03-05T01:25:19.482Z,4.08
2023-03-05T01:26:23.580Z,4.06
2023-03-05T01:27:28.349Z,3.98
2023-03-05T01:28:32.863Z,3.99
2023-03-05T01:29:37.941Z,4.01
2023-03-05T01:30:44.447Z,4.04
2023-03-05T01:31:48.642Z,4.04
2023-03-05T01:32:52.555Z,4.03
2023-03-05T01:33:56.356Z,3.96
2023-03-05T01:35:02.863Z,3.99
2023-03-05T01:36:17.002Z,3.89
2023-03-05T01:37:21.089Z,3.89
2023-03-05T01:38:25.038Z,3.94
2023-03-05T01:39:31.205Z,3.97
2023-03-05T01:40:35.195Z,3.98
2023-03-05T01:41:38.841Z,3.90
2023-03-05T01:42:59.290Z,3.84
2023-03-05T01:44:03.030Z,3.85
2023-03-05T01:45:16.209Z,3.79
2023-03-05T01:46:37.500Z,3.83
2023-03-05T01:47:41.449Z,3.78
2023-03-05T01:48:53.226Z,3.72
2023-03-05T01:49:57.993Z,3.73
2023-03-05T01:51:01.624Z,3.77
2023-03-05T01:52:21.817Z,3.78
2023-03-05T01:53:25.510Z,3.77
2023-03-05T01:54:48.302Z,3.79
2023-03-05T01:55:51.938Z,3.79
2023-03-05T01:57:02.426Z,3.78
2023-03-05T01:58:13.677Z,3.82
2023-03-05T01:59:19.122Z,3.82
2023-03-05T02:00:48.090Z,3.80
2023-03-05T02:01:58.523Z,3.76
2023-03-05T02:03:18.813Z,3.74
2023-03-05T02:04:33.263Z,3.77
2023-03-05T02:05:45.484Z,3.78
2023-03-05T02:06:51.007Z,3.80
2023-03-05T02:07:59.379Z,3.82
2023-03-05T02:09:03.512Z,3.79
2023-03-05T02:11:01.705Z,3.82
2023-03-05T02:12:13.041Z,3.82
2023-03-05T02:13:26.144Z,3.85
2023-03-05T02:14:30.309Z,3.79
2023-03-05T02:15:36.008Z,3.83
2023-03-05T02:16:40.238Z,3.84
2023-03-05T02:17:44.960Z,3.80
2023-03-05T02:18:51.151Z,3.83
2023-03-05T02:20:06.158Z,3.84
2023-03-05T02:21:12.593Z,3.82
2023-03-05T02:22:20.583Z,3.83
2023-03-05T02:23:36.999Z,3.78
2023-03-05T02:24:41.371Z,3.76
2023-03-05T02:25:45.874Z,3.79
2023-03-05T02:26:49.811Z,3.73
2023-03-05T02:28:04.564Z,3.74
2023-03-05T02:29:18.817Z,3.71
2023-03-05T02:30:23.018Z,3.72
2023-03-05T02:31:27.978Z,3.69
2023-03-05T02:32:31.926Z,3.71
2023-03-05T02:33:39.130Z,3.57
2023-03-05T02:34:43.712Z,3.64
2023-03-05T02:35:47.433Z,3.63
2023-03-05T02:36:56.848Z,3.62
2023-03-05T02:38:01.706Z,3.60
2023-03-05T02:39:07.116Z,3.59
2023-03-05T02:40:13.296Z,3.49
2023-03-05T02:41:17.276Z,3.48
2023-03-05T02:42:21.863Z,3.49
2023-03-05T02:43:26.492Z,3.50
2023-03-05T02:44:30.695Z,3.52
2023-03-05T02:45:34.513Z,3.54
2023-03-05T02:46:38.560Z,3.58
2023-03-05T02:47:42.680Z,3.59
2023-03-05T02:48:46.197Z,3.62
2023-03-05T02:49:50.364Z,3.58
2023-03-05T02:50:55.469Z,3.62
2023-03-05T02:51:59.090Z,3.64
2023-03-05T02:53:02.707Z,3.64
2023-03-05T02:54:15.810Z,3.67
2023-03-05T02:55:20.878Z,3.65
2023-03-05T02:56:24.725Z,3.65
2023-03-05T02:57:28.937Z,3.65
2023-03-05T02:58:32.668Z,3.64
2023-03-05T02:59:36.510Z,3.56
2023-03-05T03:01:57.481Z,3.54
2023-03-05T03:03:12.349Z,3.58
2023-03-05T03:04:26.264Z,3.57
2023-03-05T03:05:48.030Z,3.59
2023-03-05T03:06:52.115Z,3.62
2023-03-05T03:07:55.731Z,3.62
2023-03-05T03:08:59.732Z,3.62
2023-03-05T03:10:14.293Z,3.57
2023-03-05T03:11:21.872Z,3.58
2023-03-05T03:12:25.905Z,3.59
2023-03-05T03:13:29.509Z,3.53
2023-03-05T03:14:39.252Z,3.50
2023-03-05T03:15:43.597Z,3.46
2023-03-05T03:16:48.460Z,3.49
2023-03-05T03:17:52.717Z,3.49
2023-03-05T03:18:56.725Z,3.51
2023-03-05T03:20:02.971Z,3.51
2023-03-05T03:21:09.623Z,3.54
2023-03-05T03:22:16.143Z,3.56
2023-03-05T03:23:19.744Z,3.58
2023-03-05T03:24:23.655Z,3.57
2023-03-05T03:25:27.692Z,3.59
2023-03-05T03:26:32.010Z,3.60
2023-03-05T03:27:36.226Z,3.60
2023-03-05T03:28:39.885Z,3.61
2023-03-05T03:29:43.496Z,3.50
2023-03-05T03:30:47.527Z,3.54
2023-03-05T03:31:52.211Z,3.55
2023-03-05T03:32:55.800Z,3.55
2023-03-05T03:33:59.497Z,3.50
2023-03-05T03:35:03.959Z,3.51
2023-03-05T03:36:10.925Z,3.53
2023-03-05T03:37:15.100Z,3.54
2023-03-05T03:38:18.795Z,3.55
2023-03-05T03:39:24.101Z,3.55
2023-03-05T03:40:27.693Z,3.54
2023-03-05T03:41:32.360Z,3.55
2023-03-05T03:42:36.013Z,3.52
2023-03-05T03:43:42.838Z,3.37
2023-03-05T03:44:47.143Z,3.36
2023-03-05T03:45:50.888Z,3.35
2023-03-05T03:46:55.143Z,3.38
2023-03-05T03:48:00.863Z,3.41
2023-03-05T03:49:23.913Z,3.36
2023-03-05T03:50:27.772Z,3.37
2023-03-05T03:51:44.215Z,3.33
2023-03-05T03:52:48.157Z,3.31
2023-03-05T03:53:52.823Z,3.33
2023-03-05T03:55:03.539Z,3.34
2023-03-05T03:56:09.074Z,3.29
2023-03-05T03:57:13.920Z,3.25
2023-03-05T03:58:17.703Z,3.28
2023-03-05T03:59:22.312Z,3.30
2023-03-05T04:00:26.225Z,3.31
2023-03-05T04:01:30.472Z,3.31
2023-03-05T04:02:34.889Z,3.27
2023-03-05T04:03:38.841Z,3.20
2023-03-05T04:04:42.777Z,3.22
2023-03-05T04:05:46.561Z,3.24
2023-03-05T04:06:50.190Z,3.23
2023-03-05T04:07:54.856Z,3.22
2023-03-05T04:08:59.129Z,3.25
2023-03-05T04:10:04.410Z,3.29
2023-03-05T04:11:13.766Z,3.24
2023-03-05T04:12:21.928Z,3.27
2023-03-05T04:13:26.810Z,3.30
2023-03-05T04:14:30.986Z,3.28
2023-03-05T04:15:35.402Z,3.30
2023-03-05T04:16:39.961Z,3.31
2023-03-05T04:17:43.681Z,3.31
2023-03-05T04:18:47.771Z,3.25
2023-03-05T04:19:51.502Z,3.26
2023-03-05T04:20:55.364Z,3.21
2023-03-05T04:21:59.777Z,3.25
2023-03-05T04:23:04.215Z,3.28
2023-03-05T04:24:11.920Z,3.27
2023-03-05T04:25:16.128Z,3.21
2023-03-05T04:26:19.980Z,3.25
2023-03-05T04:27:24.113Z,3.23
2023-03-05T04:28:28.117Z,3.18
2023-03-05T04:29:32.779Z,3.23
2023-03-05T04:30:37.346Z,3.13
2023-03-05T04:31:41.340Z,3.07
2023-03-05T04:32:45.145Z,2.98
2023-03-05T04:33:48.862Z,3.00
2023-03-05T04:34:52.560Z,3.08
2023-03-05T04:35:56.692Z,3.13
2023-03-05T04:37:00.473Z,3.17
2023-03-05T04:38:04.776Z,3.17
2023-03-05T04:39:10.304Z,3.16
2023-03-05T04:40:14.567Z,3.14
2023-03-05T04:41:18.452Z,3.14
2023-03-05T04:42:23.062Z,3.13
2023-03-05T04:43:27.337Z,3.18
2023-03-05T04:44:31.634Z,3.14
2023-03-05T04:45:35.334Z,3.18
2023-03-05T04:46:39.548Z,3.16
2023-03-05T04:47:44.253Z,3.19
2023-03-05T04:48:48.241Z,3.22
2023-03-05T04:49:52.128Z,3.24
2023-03-05T04:50:58.041Z,3.23
2023-03-05T04:52:01.990Z,3.15
2023-03-05T04:53:09.874Z,3.15
2023-03-05T04:54:13.679Z,3.18
2023-03-05T04:55:18.504Z,3.23
2023-03-05T04:56:22.443Z,3.23
2023-03-05T04:57:26.660Z,3.25
2023-03-05T04:58:30.725Z,3.20
2023-03-05T04:59:34.620Z,3.23
2023-03-05T05:00:39.098Z,3.22
2023-03-05T05:01:43.376Z,3.23
2023-03-05T05:02:51.127Z,3.24
2023-03-05T05:03:55.129Z,3.24
2023-03-05T05:04:58.944Z,3.24
2023-03-05T05:06:03.330Z,3.24
2023-03-05T05:07:09.112Z,3.26
2023-03-05T05:08:13.180Z,3.21
2023-03-05T05:09:17.179Z,3.23
2023-03-05T05:10:21.491Z,3.22
2023-03-05T05:11:25.627Z,3.21
2023-03-05T05:12:31.242Z,3.23
2023-03-05T05:13:35.497Z,3.23
2023-03-05T05:14:39.385Z,3.21
2023-03-05T05:15:42.944Z,3.19
2023-03-05T05:16:46.865Z,3.17
2023-03-05T05:17:50.879Z,3.18
2023-03-05T05:18:54.713Z,3.09
2023-03-05T05:19:58.469Z,3.09
2023-03-05T05:21:02.111Z,3.09
2023-03-05T05:22:07.199Z,3.10
2023-03-05T05:23:13.914Z,3.08
2023-03-05T05:24:17.847Z,3.07
2023-03-05T05:25:21.754Z,3.03
2023-03-05T05:26:26.317Z,3.05
2023-03-05T05:27:30.052Z,3.08
2023-03-05T05:28:35.861Z,3.07
2023-03-05T05:29:39.845Z,3.06
2023-03-05T05:30:43.715Z,3.07
2023-03-05T05:31:47.717Z,3.08
2023-03-05T05:32:51.528Z,3.07
2023-03-05T05:33:55.223Z,3.07
2023-03-05T05:35:00.416Z,3.04
2023-03-05T05:36:09.185Z,2.96
2023-03-05T05:37:13.029Z,2.97
2023-03-05T05:38:17.197Z,2.94
2023-03-05T05:39:20.914Z,2.97
2023-03-05T05:40:24.969Z,2.97
2023-03-05T05:41:28.836Z,2.98
2023-03-05T05:42:33.983Z,2.93
2023-03-05T05:43:40.772Z,2.94
2023-03-05T05:44:45.423Z,2.90
2023-03-05T05:45:49.604Z,2.91
2023-03-05T05:46:53.490Z,2.93
2023-03-05T05:47:57.205Z,2.93
2023-03-05T05:49:01.192Z,2.94
2023-03-05T05:50:09.651Z,2.91
2023-03-05T05:51:18.432Z,2.91
2023-03-05T05:52:23.399Z,2.92
2023-03-05T05:53:28.565Z,2.95
2023-03-05T05:54:34.860Z,2.96
2023-03-05T05:55:41.673Z,2.94
2023-03-05T05:56:45.622Z,2.96
2023-03-05T05:57:49.525Z,2.94
2023-03-05T05:58:53.866Z,2.92
2023-03-05T05:59:57.876Z,2.88
2023-03-05T06:01:02.748Z,2.93
2023-03-05T06:02:18.576Z,2.92
2023-03-05T06:03:22.373Z,2.95
2023-03-05T06:04:26.564Z,2.93
2023-03-05T06:05:30.649Z,2.91
2023-03-05T06:06:35.201Z,2.91
2023-03-05T06:07:41.446Z,2.87
2023-03-05T06:08:45.435Z,2.89
2023-03-05T06:09:49.185Z,2.92
2023-03-05T06:10:56.197Z,2.78
2023-03-05T06:11:59.887Z,2.63
2023-03-05T06:13:04.194Z,2.64
2023-03-05T06:14:13.282Z,2.65
2023-03-05T06:15:19.843Z,2.68
2023-03-05T06:16:26.265Z,2.76
2023-03-05T06:17:31.158Z,2.75
2023-03-05T06:18:35.767Z,2.68
2023-03-05T06:19:39.417Z,2.57
2023-03-05T06:20:43.027Z,2.57
2023-03-05T06:21:49.005Z,2.60
2023-03-05T06:22:52.657Z,2.61
2023-03-05T06:23:58.830Z,2.64
2023-03-05T06:25:02.950Z,2.57
2023-03-05T06:26:12.879Z,2.63
2023-03-05T06:27:17.066Z,2.66
2023-03-05T06:28:21.850Z,2.69
2023-03-05T06:29:26.381Z,2.67
2023-03-05T06:30:30.251Z,2.68
2023-03-05T06:31:36.770Z,2.61
2023-03-05T06:32:40.808Z,2.52
2023-03-05T06:33:45.557Z,2.59
2023-03-05T06:34:50.924Z,2.62
2023-03-05T06:35:54.789Z,2.64
2023-03-05T06:36:58.940Z,2.58
2023-03-05T06:38:02.604Z,2.53
2023-03-05T06:39:10.111Z,2.49
2023-03-05T06:40:15.767Z,2.45
2023-03-05T06:41:30.450Z,2.48
2023-03-05T06:42:35.335Z,2.53
2023-03-05T06:43:43.544Z,2.57
2023-03-05T06:44:48.414Z,2.52
2023-03-05T06:46:04.745Z,2.56
2023-03-05T06:47:11.991Z,2.51
2023-03-05T06:48:16.485Z,2.49
2023-03-05T06:49:20.603Z,2.57
2023-03-05T06:50:24.985Z,2.61
2023-03-05T06:51:36.751Z,2.62
2023-03-05T06:52:41.152Z,2.57
2023-03-05T06:53:47.242Z,2.58
2023-03-05T06:54:55.954Z,2.59
2023-03-05T06:56:01.702Z,2.66
2023-03-05T06:57:11.591Z,2.69
2023-03-05T06:58:15.329Z,2.71
2023-03-05T06:59:18.929Z,2.78
2023-03-05T07:00:24.883Z,2.77
2023-03-05T07:01:28.733Z,2.70
2023-03-05T07:02:32.883Z,2.72
2023-03-05T07:03:37.631Z,2.75
2023-03-05T07:04:41.776Z,2.72
2023-03-05T07:05:46.186Z,2.74
2023-03-05T07:06:49.942Z,2.80
2023-03-05T07:07:54.271Z,2.86
2023-03-05T07:09:01.492Z,2.88
2023-03-05T07:10:09.050Z,2.88
2023-03-05T07:11:18.021Z,2.86
2023-03-05T07:12:22.477Z,2.82
2023-03-05T07:13:28.165Z,2.79
2023-03-05T07:14:32.570Z,2.78
2023-03-05T07:15:40.460Z,2.74
2023-03-05T07:16:44.158Z,2.75
2023-03-05T07:17:49.196Z,2.71
2023-03-05T07:18:55.002Z,2.69
2023-03-05T07:19:58.919Z,2.64
2023-03-05T07:21:09.903Z,2.56
2023-03-05T07:22:13.798Z,2.49
2023-03-05T07:23:17.736Z,2.57
2023-03-05T07:24:21.498Z,2.58
2023-03-05T07:25:25.243Z,2.55
2023-03-05T07:26:33.700Z,2.45
2023-03-05T07:27:39.296Z,2.47
2023-03-05T07:28:44.273Z,2.57
2023-03-05T07:29:48.464Z,2.60
2023-03-05T07:31:04.779Z,2.62
2023-03-05T07:32:10.149Z,2.67
2023-03-05T07:33:13.788Z,2.73
2023-03-05T07:34:17.418Z,2.73
2023-03-05T07:35:21.315Z,2.67
2023-03-05T07:36:27.970Z,2.64
2023-03-05T07:37:35.217Z,2.64
2023-03-05T07:38:41.473Z,2.71
2023-03-05T07:39:47.129Z,2.70
2023-03-05T07:40:51.373Z,2.71
2023-03-05T07:41:55.093Z,2.75
2023-03-05T07:42:58.859Z,2.79
2023-03-05T07:44:02.708Z,2.73
2023-03-05T07:45:09.866Z,2.68
2023-03-05T07:46:17.710Z,2.74
2023-03-05T07:47:21.437Z,2.77
2023-03-05T07:48:25.869Z,2.81
2023-03-05T07:49:29.410Z,2.80
2023-03-05T07:50:33.564Z,2.75
2023-03-05T07:51:37.855Z,2.80
2023-03-05T07:52:41.470Z,2.74
2023-03-05T07:53:48.548Z,2.71
2023-03-05T07:54:52.289Z,2.72
2023-03-05T07:55:56.065Z,2.74
2023-03-05T07:57:00.223Z,2.74
2023-03-05T07:58:04.272Z,2.71
2023-03-05T07:59:13.490Z,2.82
2023-03-05T08:00:19.053Z,2.90
2023-03-05T08:01:22.990Z,2.94
2023-03-05T08:02:27.479Z,2.96
2023-03-05T08:03:31.438Z,2.94
2023-03-05T08:04:35.569Z,2.97
2023-03-05T08:05:42.421Z,2.90
2023-03-05T08:06:47.121Z,2.91
2023-03-05T08:07:51.165Z,2.90
2023-03-05T08:08:55.515Z,2.90
2023-03-05T08:09:59.205Z,2.91
2023-03-05T08:11:13.587Z,2.85
2023-03-05T08:12:18.174Z,2.92
2023-03-05T08:13:23.153Z,3.03
2023-03-05T08:14:27.016Z,3.09
2023-03-05T08:15:31.805Z,3.08
2023-03-05T08:16:35.505Z,3.11
2023-03-05T08:17:39.147Z,3.18
2023-03-05T08:18:43.617Z,3.17
2023-03-05T08:19:47.605Z,3.18
2023-03-05T08:20:51.207Z,3.24
2023-03-05T08:21:56.525Z,3.12
2023-03-05T08:23:00.183Z,3.09
2023-03-05T08:24:12.213Z,3.10
2023-03-05T08:25:16.416Z,3.09
2023-03-05T08:26:24.372Z,3.11
2023-03-05T08:27:28.476Z,3.17
2023-03-05T08:28:34.338Z,3.22
2023-03-05T08:29:38.524Z,3.28
2023-03-05T08:30:44.746Z,3.31
2023-03-05T08:31:49.898Z,3.32
2023-03-05T08:32:54.533Z,3.28
2023-03-05T08:34:01.707Z,3.29
2023-03-05T08:35:08.269Z,3.33
2023-03-05T08:36:12.163Z,3.30
2023-03-05T08:37:16.253Z,3.35
2023-03-05T08:38:21.203Z,3.39
2023-03-05T08:39:25.159Z,3.41
2023-03-05T08:40:29.000Z,3.41
2023-03-05T08:41:33.142Z,3.42
2023-03-05T08:42:36.809Z,3.42
2023-03-05T08:43:40.445Z,3.37
2023-03-05T08:44:44.196Z,3.42
2023-03-05T08:45:49.861Z,3.41
2023-03-05T08:46:53.729Z,3.47
2023-03-05T08:47:58.307Z,3.53
2023-03-05T08:49:01.986Z,3.51
2023-03-05T08:50:08.627Z,3.55
2023-03-05T08:51:20.699Z,3.49
2023-03-05T08:52:25.283Z,3.48
2023-03-05T08:53:28.847Z,3.54
2023-03-05T08:54:33.936Z,3.44
2023-03-05T08:55:38.286Z,3.42
2023-03-05T08:56:42.049Z,3.34
2023-03-05T08:57:45.831Z,3.43
2023-03-05T08:58:49.649Z,3.43
2023-03-05T08:59:53.418Z,3.43
2023-03-05T09:00:57.524Z,3.40
2023-03-05T09:02:03.047Z,3.50
2023-03-05T09:03:11.767Z,3.51
2023-03-05T09:04:16.062Z,3.47
2023-03-05T09:05:26.430Z,3.49
2023-03-05T09:06:30.474Z,3.52
2023-03-05T09:07:34.230Z,3.47
2023-03-05T09:08:38.592Z,3.50
2023-03-05T09:09:42.181Z,3.50
2023-03-05T09:10:46.450Z,3.51
2023-03-05T09:11:52.155Z,3.63
2023-03-05T09:12:56.737Z,3.68
2023-03-05T09:14:00.551Z,3.70
2023-03-05T09:15:11.873Z,3.71
2023-03-05T09:16:18.620Z,3.68
2023-03-05T09:17:23.789Z,3.69
2023-03-05T09:18:28.550Z,3.71
2023-03-05T09:19:32.268Z,3.70
2023-03-05T09:20:37.805Z,3.75
2023-03-05T09:21:42.712Z,3.74
2023-03-05T09:22:47.181Z,3.81
2023-03-05T09:23:51.328Z,3.85
2023-03-05T09:24:54.980Z,3.96
2023-03-05T09:25:58.647Z,4.00
2023-03-05T09:27:02.271Z,3.94
2023-03-05T09:28:08.932Z,3.97
2023-03-05T09:29:15.789Z,4.02
2023-03-05T09:30:20.600Z,4.09
2023-03-05T09:31:24.609Z,4.10
2023-03-05T09:32:31.739Z,4.12
2023-03-05T09:33:37.770Z,4.18
2023-03-05T09:34:42.386Z,4.10
2023-03-05T09:35:46.094Z,4.13
2023-03-05T09:36:50.436Z,4.15
2023-03-05T09:37:55.295Z,4.19
2023-03-05T09:38:59.600Z,4.20
2023-03-05T09:40:04.252Z,4.18
2023-03-05T09:41:47.498Z,4.23
2023-03-05T09:43:04.566Z,4.32
2023-03-05T09:44:18.281Z,4.37
2023-03-05T09:45:42.215Z,4.44
2023-03-05T09:47:16.280Z,4.41
2023-03-05T09:48:40.896Z,4.37
2023-03-05T09:49:58.555Z,4.37
2023-03-05T09:51:07.754Z,4.29
2023-03-05T09:53:09.162Z,4.38
2023-03-05T09:54:43.523Z,4.40
2023-03-05T09:55:54.189Z,4.42
2023-03-05T09:57:05.202Z,4.45
2023-03-05T09:58:34.217Z,4.53
2023-03-05T10:00:10.528Z,4.48
2023-03-05T10:01:27.447Z,4.47
2023-03-05T10:02:37.483Z,4.45
2023-03-05T10:04:13.439Z,4.46
2023-03-05T10:05:31.594Z,4.42
2023-03-05T10:07:10.204Z,4.39
2023-03-05T10:08:19.427Z,4.47
2023-03-05T10:09:52.173Z,4.48
2023-03-05T10:10:56.196Z,4.48
2023-03-05T10:12:39.179Z,4.51
2023-03-05T10:13:46.595Z,4.55
2023-03-05T10:14:50.597Z,4.67
2023-03-05T10:16:08.173Z,4.65
2023-03-05T10:17:55.416Z,4.70
2023-03-05T10:19:02.829Z,4.80
2023-03-05T10:20:34.918Z,4.92
2023-03-05T10:22:03.751Z,4.96
2023-03-05T10:23:38.798Z,4.97
2023-03-05T10:24:57.750Z,5.07
2023-03-05T10:26:54.666Z,5.12
2023-03-05T10:28:21.475Z,5.15
2023-03-05T10:30:12.746Z,5.19
2023-03-05T10:31:44.457Z,5.21
2023-03-05T10:33:23.318Z,5.24
2023-03-05T10:34:54.683Z,5.36
2023-03-05T10:36:36.290Z,5.28
2023-03-05T10:38:23.369Z,5.36
2023-03-05T10:39:47.492Z,5.36
2023-03-05T10:41:00.833Z,5.38
2023-03-05T10:42:36.765Z,5.36
2023-03-05T10:43:52.284Z,5.40
2023-03-05T10:45:09.895Z,5.43
2023-03-05T10:46:18.863Z,5.46
2023-03-05T10:47:55.723Z,5.44
2023-03-05T10:49:37.111Z,5.27
2023-03-05T10:50:56.826Z,5.31
2023-03-05T10:52:18.671Z,5.23
2023-03-05T10:53:32.130Z,5.15
2023-03-05T10:54:41.970Z,5.16
2023-03-05T10:55:45.519Z,5.13
2023-03-05T10:56:49.177Z,5.16
2023-03-05T10:57:53.208Z,5.15
2023-03-05T10:58:56.746Z,5.08
2023-03-05T11:00:08.390Z,5.09
2023-03-05T11:01:12.604Z,5.12
2023-03-05T11:02:17.876Z,5.09
2023-03-05T11:03:21.752Z,5.02
2023-03-05T11:04:38.350Z,4.97
2023-03-05T11:05:48.117Z,4.92
2023-03-05T11:06:52.418Z,4.95
2023-03-05T11:07:56.495Z,4.96
2023-03-05T11:09:32.622Z,4.94
2023-03-05T11:10:36.569Z,4.93
2023-03-05T11:11:40.472Z,5.01
2023-03-05T11:12:46.283Z,5.06
2023-03-05T11:14:07.483Z,5.03
2023-03-05T11:15:14.216Z,4.97
2023-03-05T11:16:25.191Z,4.94
2023-03-05T11:18:09.099Z,4.88
2023-03-05T11:19:30.173Z,4.76
2023-03-05T11:20:37.084Z,4.70
2023-03-05T11:21:43.475Z,4.69
2023-03-05T11:23:23.733Z,4.58
2023-03-05T11:24:27.336Z,4.55
2023-03-05T11:25:32.790Z,4.55
2023-03-05T11:26:36.736Z,4.50
2023-03-05T11:27:55.402Z,4.50
2023-03-05T11:29:03.658Z,4.45
2023-03-05T11:30:41.246Z,4.44
2023-03-05T11:31:44.929Z,4.34
2023-03-05T11:32:48.789Z,4.26
2023-03-05T11:34:01.145Z,4.19
2023-03-05T11:35:34.984Z,4.11
2023-03-05T11:36:58.857Z,4.02
2023-03-05T11:38:08.772Z,4.01
2023-03-05T11:39:22.669Z,4.01
2023-03-05T11:40:31.466Z,3.98
2023-03-05T11:41:59.357Z,3.87
2023-03-05T11:43:06.199Z,3.88
2023-03-05T11:44:22.652Z,3.88
2023-03-05T11:45:29.691Z,3.85
2023-03-05T11:46:43.585Z,3.90
2023-03-05T11:47:58.846Z,3.94
2023-03-05T11:49:06.596Z,3.92
2023-03-05T11:50:23.392Z,3.89
2023-03-05T11:51:57.725Z,3.81
2023-03-05T11:53:07.957Z,3.83
2023-03-05T11:54:25.216Z,3.84
2023-03-05T11:55:37.839Z,3.78
2023-03-05T11:56:45.975Z,3.83
2023-03-05T11:58:01.545Z,3.88
2023-03-05T11:59:23.684Z,3.82
2023-03-05T12:00:34.668Z,3.81
2023-03-05T12:01:54.252Z,3.80
2023-03-05T12:03:05.237Z,3.86
2023-03-05T12:04:12.820Z,3.87
2023-03-05T12:05:17.655Z,3.84
2023-03-05T12:06:51.832Z,3.82
2023-03-05T12:08:02.797Z,3.84
2023-03-05T12:09:37.952Z,3.81
2023-03-05T12:10:42.046Z,3.81
2023-03-05T12:11:50.845Z,3.80
2023-03-05T12:13:00.313Z,3.85
2023-03-05T12:14:36.723Z,3.83
2023-03-05T12:16:00.286Z,3.74
2023-03-05T12:17:31.725Z,3.73
2023-03-05T12:19:37.655Z,3.70
2023-03-05T12:21:13.006Z,3.65
2023-03-05T12:22:24.781Z,3.63
2023-03-05T12:23:28.766Z,3.54
2023-03-05T12:24:35.832Z,3.54
2023-03-05T12:26:01.327Z,3.57
2023-03-05T12:27:08.139Z,3.52
2023-03-05T12:28:32.095Z,3.42
2023-03-05T12:29:52.220Z,3.39
2023-03-05T12:31:40.513Z,3.44
2023-03-05T12:32:44.315Z,3.49
2023-03-05T12:33:48.321Z,3.48
2023-03-05T12:34:54.904Z,3.47
2023-03-05T12:36:23.487Z,3.48
2023-03-05T12:37:27.388Z,3.41
2023-03-05T12:38:33.836Z,3.46
2023-03-05T12:39:52.608Z,3.46
2023-03-05T12:41:33.038Z,3.49
2023-03-05T12:42:46.218Z,3.49
2023-03-05T12:44:11.746Z,3.51
2023-03-05T12:45:16.352Z,3.49
2023-03-05T12:46:29.474Z,3.49
2023-03-05T12:47:33.672Z,3.54
2023-03-05T12:48:44.496Z,3.64
2023-03-05T12:49:48.919Z,3.72
2023-03-05T12:50:58.954Z,3.79
2023-03-05T12:52:08.240Z,3.76
2023-03-05T12:53:19.335Z,3.71
2023-03-05T12:54:39.831Z,3.76
2023-03-05T12:56:22.474Z,3.81
2023-03-05T12:57:29.659Z,3.78
2023-03-05T12:59:06.697Z,3.82
2023-03-05T13:00:26.548Z,3.86
2023-03-05T13:02:03.284Z,3.89
2023-03-05T13:03:18.227Z,3.99
2023-03-05T13:04:32.055Z,4.02
2023-03-05T13:05:51.960Z,3.93
2023-03-05T13:07:20.057Z,3.96
2023-03-05T13:08:28.603Z,3.87
2023-03-05T13:09:36.719Z,3.85
2023-03-05T13:10:41.769Z,3.92
2023-03-05T13:11:52.315Z,3.96
2023-03-05T13:12:58.784Z,4.01
2023-03-05T13:14:03.139Z,4.01
2023-03-05T13:15:15.469Z,4.07
2023-03-05T13:16:36.809Z,4.14
2023-03-05T13:18:00.501Z,4.12
2023-03-05T13:19:15.463Z,4.21
2023-03-05T13:20:39.363Z,4.22
2023-03-05T13:21:43.610Z,4.21
2023-03-05T13:23:24.324Z,4.18
2023-03-05T13:24:29.370Z,4.20
2023-03-05T13:25:33.139Z,4.19
2023-03-05T13:26:41.300Z,4.21
2023-03-05T13:27:45.467Z,4.22
2023-03-05T13:29:22.122Z,4.22
2023-03-05T13:30:29.474Z,4.30
2023-03-05T13:31:37.432Z,4.31
2023-03-05T13:32:43.641Z,4.34
2023-03-05T13:33:57.185Z,4.32
2023-03-05T13:35:01.983Z,4.29
2023-03-05T13:36:15.584Z,4.30
2023-03-05T13:37:22.439Z,4.38
2023-03-05T13:38:37.317Z,4.37
2023-03-05T13:40:01.559Z,4.38
2023-03-05T13:41:11.626Z,4.37
2023-03-05T13:42:26.551Z,4.35
2023-03-05T13:43:30.649Z,4.37
2023-03-05T13:44:35.084Z,4.39
2023-03-05T13:45:40.225Z,4.32
2023-03-05T13:46:45.930Z,4.33
2023-03-05T13:48:03.149Z,4.33
2023-03-05T13:49:39.890Z,4.26
2023-03-05T13:50:43.793Z,4.31
2023-03-05T13:52:00.921Z,4.40
2023-03-05T13:53:29.116Z,4.43
2023-03-05T13:54:33.309Z,4.57
2023-03-05T13:55:38.949Z,4.69
2023-03-05T13:56:55.562Z,4.84
2023-03-05T13:57:59.354Z,4.91
2023-03-05T13:59:03.428Z,5.01
2023-03-05T14:00:35.199Z,5.02
2023-03-05T14:01:48.093Z,5.02
2023-03-05T14:02:56.132Z,4.97
2023-03-05T14:04:25.311Z,5.00
2023-03-05T14:05:31.580Z,5.09
2023-03-05T14:06:54.279Z,5.11
2023-03-05T14:07:59.819Z,5.17
2023-03-05T14:09:42.515Z,5.16
2023-03-05T14:10:46.366Z,5.18
2023-03-05T14:12:07.312Z,5.28
2023-03-05T14:13:19.776Z,5.26
2023-03-05T14:14:26.640Z,5.32
2023-03-05T14:15:34.227Z,5.31
2023-03-05T14:16:38.703Z,5.30
2023-03-05T14:17:45.602Z,5.11
2023-03-05T14:19:02.759Z,5.07
2023-03-05T14:20:27.907Z,5.03
2023-03-05T14:21:58.281Z,4.99
2023-03-05T14:23:34.791Z,5.02
2023-03-05T14:24:38.654Z,5.02
2023-03-05T14:25:42.727Z,5.04
2023-03-05T14:26:58.635Z,4.85
2023-03-05T14:28:26.403Z,4.81
2023-03-05T14:29:30.446Z,4.89
2023-03-05T14:30:36.387Z,4.97
2023-03-05T14:31:57.938Z,5.03
2023-03-05T14:33:03.690Z,5.03
2023-03-05T14:34:37.151Z,4.99
2023-03-05T14:35:49.133Z,4.89
2023-03-05T14:36:58.581Z,4.88
2023-03-05T14:38:03.105Z,4.89
2023-03-05T14:39:46.287Z,4.82
2023-03-05T14:40:54.577Z,4.82
2023-03-05T14:42:39.427Z,4.75
2023-03-05T14:43:43.127Z,4.82
2023-03-05T14:44:47.398Z,4.85
2023-03-05T14:45:51.284Z,4.96
2023-03-05T14:46:56.076Z,4.89
2023-03-05T14:48:03.841Z,4.89
2023-03-05T14:49:10.721Z,4.87
2023-03-05T14:50:27.785Z,4.91
2023-03-05T14:51:37.813Z,4.93
2023-03-05T14:52:45.037Z,4.95
2023-03-05T14:53:56.240Z,4.98
2023-03-05T14:55:00.566Z,4.89
2023-03-05T14:56:23.241Z,4.80
2023-03-05T14:57:31.986Z,4.70
2023-03-05T14:58:41.379Z,4.66
2023-03-05T14:59:45.251Z,4.62
2023-03-05T15:00:51.474Z,4.51
2023-03-05T15:01:55.890Z,4.57
2023-03-05T15:03:01.074Z,4.50
2023-03-05T15:04:07.617Z,4.55
2023-03-05T15:05:12.034Z,4.49
2023-03-05T15:06:33.729Z,4.46
2023-03-05T15:07:38.005Z,4.48
2023-03-05T15:08:41.605Z,4.49
2023-03-05T15:09:45.856Z,4.53
2023-03-05T15:10:50.234Z,4.47
2023-03-05T15:11:53.910Z,4.53
2023-03-05T15:12:57.602Z,4.49
2023-03-05T15:14:06.035Z,4.42
2023-03-05T15:15:20.158Z,4.38
2023-03-05T15:16:24.127Z,4.36
2023-03-05T15:17:36.839Z,4.28
2023-03-05T15:18:40.853Z,4.32
2023-03-05T15:19:46.007Z,4.39
2023-03-05T15:20:53.183Z,4.34
2023-03-05T15:21:57.147Z,4.34
2023-03-05T15:23:01.211Z,4.32